createdAt,value
2018-06-14T00:01:12.622Z,13.20
2018-06-14T00:03:41.908Z,13.20
2018-06-14T00:06:11.090Z,13.20
2018-06-14T00:08:40.304Z,13.20
2018-06-14T00:11:09.483Z,13.10
2018-06-14T00:13:38.790Z,13.10
2018-06-14T00:16:09.706Z,13.00
2018-06-14T00:18:39.957Z,13.00
2018-06-14T00:21:10.310Z,13.00
2018-06-14T00:23:46.425Z,13.00
2018-06-14T00:26:15.755Z,13.00
2018-06-14T00:28:44.875Z,12.90
2018-06-14T00:31:14.054Z,12.90
2018-06-14T00:33:44.180Z,12.80
2018-06-14T00:36:13.246Z,12.80
2018-06-14T00:38:43.091Z,12.80
2018-06-14T00:41:13.141Z,12.80
2018-06-14T00:46:12.807Z,12.80
2018-06-14T00:48:41.928Z,12.80
2018-06-14T00:51:11.267Z,12.70
2018-06-14T00:53:40.944Z,12.70
2018-06-14T00:56:11.284Z,12.70
2018-06-14T00:58:40.477Z,12.60
2018-06-14T01:01:10.615Z,12.60
2018-06-14T01:03:39.740Z,12.60
2018-06-14T01:06:10.746Z,12.50
2018-06-14T01:08:40.981Z,12.50
2018-06-14T01:11:10.294Z,12.50
2018-06-14T01:13:39.623Z,12.40
2018-06-14T01:16:09.444Z,12.40
2018-06-14T01:18:39.319Z,12.30
2018-06-14T01:21:08.652Z,12.30
2018-06-14T01:23:38.722Z,12.30
2018-06-14T01:26:14.465Z,12.30
2018-06-14T01:28:44.677Z,12.20
2018-06-14T01:31:14.873Z,12.20
2018-06-14T01:33:44.226Z,12.20
2018-06-14T01:36:15.327Z,12.20
2018-06-14T01:38:44.525Z,12.20
2018-06-14T01:41:13.727Z,12.10
2018-06-14T01:43:43.939Z,12.10
2018-06-14T01:46:13.174Z,12.10
2018-06-14T01:48:43.180Z,12.10
2018-06-14T01:51:13.445Z,12.10
2018-06-14T01:53:43.740Z,12.00
2018-06-14T01:56:13.047Z,11.90
2018-06-14T01:58:42.204Z,11.90
2018-06-14T02:01:11.468Z,11.90
2018-06-14T02:03:40.709Z,11.90
2018-06-14T02:06:09.868Z,11.80
2018-06-14T02:08:39.306Z,11.90
2018-06-14T02:11:08.781Z,11.90
2018-06-14T02:13:39.663Z,11.90
2018-06-14T02:16:10.393Z,11.90
2018-06-14T02:21:11.446Z,11.90
2018-06-14T02:23:41.528Z,11.90
2018-06-14T02:26:10.664Z,11.80
2018-06-14T02:28:40.745Z,11.70
2018-06-14T02:31:10.901Z,11.70
2018-06-14T02:33:40.116Z,11.70
2018-06-14T02:36:10.333Z,11.60
2018-06-14T02:38:39.542Z,11.60
2018-06-14T02:41:10.537Z,11.50
2018-06-14T02:43:41.215Z,11.50
2018-06-14T02:46:11.182Z,11.50
2018-06-14T02:48:41.340Z,11.50
2018-06-14T02:51:10.626Z,11.50
2018-06-14T02:53:39.735Z,11.50
2018-06-14T02:56:09.069Z,11.40
2018-06-14T02:58:38.139Z,11.40
2018-06-14T03:01:12.528Z,11.40
2018-06-14T03:03:43.562Z,11.30
2018-06-14T03:06:26.790Z,11.30
2018-06-14T03:08:57.023Z,11.30
2018-06-14T03:11:29.511Z,11.20
2018-06-14T03:13:58.768Z,11.20
2018-06-14T03:16:28.168Z,11.20
2018-06-14T03:19:00.493Z,11.10
2018-06-14T03:21:30.815Z,11.10
2018-06-14T03:24:01.930Z,11.10
2018-06-14T03:26:32.829Z,11.10
2018-06-14T03:29:02.189Z,11.10
2018-06-14T03:31:31.241Z,11.20
2018-06-14T03:34:02.562Z,11.20
2018-06-14T03:36:31.761Z,11.10
2018-06-14T03:39:01.952Z,11.10
2018-06-14T03:41:31.163Z,11.10
2018-06-14T03:44:00.365Z,11.20
2018-06-14T03:46:29.659Z,11.20
2018-06-14T03:48:58.829Z,11.30
2018-06-14T03:51:29.952Z,11.20
2018-06-14T03:54:00.095Z,11.30
2018-06-14T03:56:29.397Z,11.30
2018-06-14T03:58:59.626Z,11.40
2018-06-14T04:01:28.771Z,11.40
2018-06-14T04:03:58.009Z,11.40
2018-06-14T04:06:28.027Z,11.50
2018-06-14T04:08:58.105Z,11.60
2018-06-14T04:11:28.642Z,11.60
2018-06-14T04:13:57.964Z,11.70
2018-06-14T04:16:28.022Z,11.80
2018-06-14T04:18:57.999Z,11.90
2018-06-14T04:21:27.049Z,12.00
2018-06-14T04:23:57.032Z,12.10
2018-06-14T04:26:26.426Z,12.20
2018-06-14T04:28:55.859Z,12.20
2018-06-14T04:31:25.146Z,12.20
2018-06-14T04:36:23.830Z,12.30
2018-06-14T04:38:54.778Z,12.40
2018-06-14T04:41:23.972Z,12.40
2018-06-14T04:43:53.154Z,12.40
2018-06-14T04:46:22.319Z,12.40
2018-06-14T04:48:52.299Z,12.40
2018-06-14T04:51:23.911Z,12.40
2018-06-14T04:53:54.002Z,12.40
2018-06-14T04:56:23.183Z,12.50
2018-06-14T04:58:52.239Z,12.50
2018-06-14T05:01:21.560Z,12.50
2018-06-14T05:03:51.596Z,12.50
2018-06-14T05:08:52.152Z,12.60
2018-06-14T05:11:22.269Z,12.60
2018-06-14T05:16:21.183Z,12.80
2018-06-14T05:18:51.386Z,12.90
2018-06-14T05:21:20.656Z,13.00
2018-06-14T05:23:49.804Z,13.10
2018-06-14T05:26:19.229Z,13.20
2018-06-14T05:28:48.510Z,13.30
2018-06-14T05:31:18.778Z,13.40
2018-06-14T05:33:47.889Z,13.50
2018-06-14T05:38:46.084Z,13.60
2018-06-14T05:41:15.423Z,13.70
2018-06-14T05:43:44.596Z,13.70
2018-06-14T05:46:13.727Z,13.80
2018-06-14T05:48:45.828Z,13.90
2018-06-14T05:51:15.498Z,14.10
2018-06-14T05:53:46.574Z,14.10
2018-06-14T05:56:15.837Z,14.20
2018-06-14T05:58:46.113Z,14.30
2018-06-14T06:01:15.219Z,14.30
2018-06-14T06:03:44.406Z,14.40
2018-06-14T06:06:14.801Z,14.40
2018-06-14T06:08:43.980Z,14.50
2018-06-14T06:11:13.100Z,14.60
2018-06-14T06:13:43.463Z,14.70
2018-06-14T06:16:13.699Z,14.80
2018-06-14T06:18:43.471Z,14.90
2018-06-14T06:21:13.283Z,15.00
2018-06-14T06:23:42.522Z,15.00
2018-06-14T06:26:12.286Z,15.10
2018-06-14T06:28:41.292Z,15.20
2018-06-14T06:31:11.227Z,15.30
2018-06-14T06:33:41.391Z,15.40
2018-06-14T06:36:10.548Z,15.50
2018-06-14T06:38:40.699Z,15.60
2018-06-14T06:41:10.663Z,15.70
2018-06-14T06:43:41.814Z,15.80
2018-06-14T06:46:13.181Z,15.80
2018-06-14T06:48:42.506Z,15.90
2018-06-14T06:51:12.776Z,16.00
2018-06-14T06:53:42.077Z,16.20
2018-06-14T06:56:11.297Z,16.30
2018-06-14T06:58:41.157Z,16.40
2018-06-14T07:01:12.083Z,16.50
2018-06-14T07:03:42.260Z,16.60
2018-06-14T07:06:11.387Z,16.70
2018-06-14T07:11:10.038Z,16.90
2018-06-14T07:13:40.910Z,17.10
2018-06-14T07:16:10.577Z,17.20
2018-06-14T07:18:39.627Z,17.30
2018-06-14T07:21:08.771Z,17.40
2018-06-14T07:23:37.868Z,17.50
2018-06-14T07:26:08.733Z,17.70
2018-06-14T07:28:38.813Z,17.90
2018-06-14T07:31:08.767Z,18.00
2018-06-14T07:33:38.005Z,18.10
2018-06-14T07:36:08.212Z,18.20
2018-06-14T07:38:37.479Z,18.30
2018-06-14T07:41:06.973Z,18.40
2018-06-14T07:43:37.191Z,18.50
2018-06-14T07:46:06.302Z,18.60
2018-06-14T07:48:35.636Z,18.70
2018-06-14T07:51:05.832Z,18.80
2018-06-14T07:53:34.911Z,19.00
2018-06-14T07:56:05.246Z,19.40
2018-06-14T07:58:34.386Z,19.70
2018-06-14T08:01:04.661Z,20.10
2018-06-14T08:03:34.190Z,20.50
2018-06-14T08:06:03.531Z,20.50
2018-06-14T08:08:32.632Z,20.70
2018-06-14T08:11:02.849Z,21.00
2018-06-14T08:13:32.096Z,21.40
2018-06-14T08:16:03.503Z,21.50
2018-06-14T08:18:34.545Z,21.70
2018-06-14T08:21:04.577Z,21.60
2018-06-14T08:23:34.666Z,21.40
2018-06-14T08:26:05.761Z,21.30
2018-06-14T08:28:35.775Z,21.50
2018-06-14T08:31:05.504Z,21.60
2018-06-14T08:33:34.637Z,21.80
2018-06-14T08:36:04.818Z,22.20
2018-06-14T08:38:34.795Z,22.50
2018-06-14T08:41:04.226Z,22.80
2018-06-14T08:43:35.835Z,23.20
2018-06-14T08:46:06.210Z,23.20
2018-06-14T08:48:36.037Z,22.90
2018-06-14T08:51:05.116Z,22.80
2018-06-14T08:53:34.628Z,22.60
2018-06-14T08:56:04.043Z,22.20
2018-06-14T08:58:34.924Z,22.10
2018-06-14T09:01:04.242Z,22.10
2018-06-14T09:03:34.989Z,22.30
2018-06-14T09:06:05.415Z,22.60
2018-06-14T09:08:34.532Z,22.60
2018-06-14T09:11:03.863Z,23.00
2018-06-14T09:13:34.832Z,23.30
2018-06-14T09:16:04.288Z,23.50
2018-06-14T09:18:34.561Z,23.30
2018-06-14T09:21:03.828Z,23.30
2018-06-14T09:23:33.950Z,23.30
2018-06-14T09:26:03.083Z,23.20
2018-06-14T09:28:32.208Z,22.80
2018-06-14T09:31:03.349Z,22.60
2018-06-14T09:33:33.538Z,22.50
2018-06-14T09:36:04.249Z,22.50
2018-06-14T09:38:33.489Z,22.60
2018-06-14T09:41:03.863Z,22.90
2018-06-14T09:43:33.707Z,23.30
2018-06-14T09:46:03.684Z,23.30
2018-06-14T09:48:33.751Z,23.30
2018-06-14T09:51:09.431Z,23.50
2018-06-14T09:53:38.643Z,23.60
2018-06-14T09:56:09.506Z,23.50
2018-06-14T09:58:39.588Z,23.50
2018-06-14T10:01:09.616Z,23.60
2018-06-14T10:03:39.660Z,23.60
2018-06-14T10:06:10.944Z,23.40
2018-06-14T10:08:40.214Z,23.50
2018-06-14T10:11:11.305Z,23.60
2018-06-14T10:13:40.536Z,23.70
2018-06-14T10:16:09.904Z,23.60
2018-06-14T10:18:40.078Z,23.80
2018-06-14T10:21:10.031Z,23.90
2018-06-14T10:23:40.179Z,24.00
2018-06-14T10:26:09.466Z,24.00
2018-06-14T10:28:39.605Z,24.10
2018-06-14T10:31:08.761Z,24.40
2018-06-14T10:33:37.868Z,24.30
2018-06-14T10:36:06.918Z,24.10
2018-06-14T10:38:36.220Z,23.90
2018-06-14T10:41:05.559Z,23.90
2018-06-14T10:43:34.821Z,24.00
2018-06-14T10:46:04.529Z,24.00
2018-06-14T10:48:35.020Z,24.20
2018-06-14T10:51:04.527Z,24.40
2018-06-14T10:53:34.638Z,24.50
2018-06-14T10:56:04.561Z,24.30
2018-06-14T10:58:33.638Z,24.20
2018-06-14T11:01:03.797Z,24.20
2018-06-14T11:03:32.837Z,23.80
2018-06-14T11:06:02.033Z,23.90
2018-06-14T11:08:32.845Z,24.10
2018-06-14T11:11:02.002Z,24.00
2018-06-14T11:13:32.078Z,24.10
2018-06-14T11:16:02.367Z,24.20
2018-06-14T11:18:31.654Z,24.30
2018-06-14T11:21:01.069Z,24.20
2018-06-14T11:23:30.281Z,24.30
2018-06-14T11:25:59.945Z,24.30
2018-06-14T11:28:29.005Z,24.50
2018-06-14T11:30:58.338Z,24.40
2018-06-14T11:33:27.395Z,24.50
2018-06-14T11:35:56.931Z,24.50
2018-06-14T11:38:26.981Z,24.40
2018-06-14T11:40:57.216Z,24.20
2018-06-14T11:43:29.205Z,24.20
2018-06-14T11:45:59.472Z,24.10
2018-06-14T11:48:29.853Z,23.90
2018-06-14T11:50:59.042Z,23.80
2018-06-14T11:53:28.387Z,23.60
2018-06-14T11:55:57.600Z,23.40
2018-06-14T11:58:27.733Z,23.30
2018-06-14T12:00:56.896Z,23.20
2018-06-14T12:03:26.068Z,23.00
2018-06-14T12:05:55.279Z,22.90
2018-06-14T12:08:24.483Z,22.90
2018-06-14T12:10:56.335Z,22.90
2018-06-14T12:13:25.557Z,22.70
2018-06-14T12:15:56.569Z,22.70
2018-06-14T12:18:26.734Z,22.60
2018-06-14T12:20:57.426Z,22.70
2018-06-14T12:23:28.085Z,22.80
2018-06-14T12:25:57.611Z,22.80
2018-06-14T12:28:26.650Z,22.60
2018-06-14T12:30:56.412Z,22.20
2018-06-14T12:33:27.090Z,22.20
2018-06-14T12:35:56.414Z,22.20
2018-06-14T12:38:26.536Z,22.00
2018-06-14T12:40:55.608Z,21.70
2018-06-14T12:43:24.775Z,21.60
2018-06-14T12:45:54.429Z,21.70
2018-06-14T12:48:25.291Z,22.00
2018-06-14T12:50:55.506Z,22.00
2018-06-14T12:53:24.806Z,22.00
2018-06-14T12:55:53.949Z,21.90
2018-06-14T12:58:24.136Z,21.70
2018-06-14T13:00:53.343Z,21.50
2018-06-14T13:03:22.900Z,21.30
2018-06-14T13:05:52.461Z,21.10
2018-06-14T13:08:21.671Z,20.90
2018-06-14T13:10:50.790Z,20.80
2018-06-14T13:13:19.867Z,20.80
2018-06-14T13:15:49.085Z,20.80
2018-06-14T13:18:18.316Z,20.60
2018-06-14T13:20:47.829Z,20.60
2018-06-14T13:23:17.047Z,20.60
2018-06-14T13:25:47.719Z,20.70
2018-06-14T13:28:17.776Z,20.90
2018-06-14T13:30:47.026Z,21.20
2018-06-14T13:33:17.577Z,21.30
2018-06-14T13:35:46.721Z,21.50
2018-06-14T13:40:45.547Z,21.80
2018-06-14T13:43:16.508Z,21.90
2018-06-14T13:45:45.820Z,22.00
2018-06-14T13:48:15.851Z,22.10
2018-06-14T13:50:46.692Z,22.20
2018-06-14T13:53:15.892Z,22.10
2018-06-14T13:55:44.966Z,22.10
2018-06-14T13:58:14.978Z,22.10
2018-06-14T14:00:44.831Z,21.90
2018-06-14T14:03:15.995Z,21.70
2018-06-14T14:05:45.347Z,21.50
2018-06-14T14:08:14.384Z,21.30
2018-06-14T14:10:44.405Z,21.30
2018-06-14T14:13:13.569Z,21.40
2018-06-14T14:15:42.774Z,21.30
2018-06-14T14:18:12.087Z,21.20
2018-06-14T14:20:41.381Z,21.10
2018-06-14T14:23:11.555Z,21.00
2018-06-14T14:25:43.727Z,20.80
2018-06-14T14:28:13.766Z,20.80
2018-06-14T14:30:43.811Z,21.00
2018-06-14T14:33:12.939Z,21.10
2018-06-14T14:35:42.988Z,21.20
2018-06-14T14:38:12.136Z,21.20
2018-06-14T14:40:42.262Z,21.30
2018-06-14T14:43:12.251Z,21.20
2018-06-14T14:45:42.559Z,21.20
2018-06-14T14:48:12.833Z,21.10
2018-06-14T14:50:42.070Z,21.10
2018-06-14T14:53:12.456Z,21.30
2018-06-14T14:55:44.558Z,21.50
2018-06-14T14:58:14.613Z,21.70
2018-06-14T15:00:44.992Z,21.80
2018-06-14T15:03:14.383Z,22.00
2018-06-14T15:05:45.528Z,21.90
2018-06-14T15:08:14.904Z,21.70
2018-06-14T15:10:44.186Z,21.60
2018-06-14T15:13:13.519Z,21.60
2018-06-14T15:15:43.190Z,21.60
2018-06-14T15:18:12.360Z,21.50
2018-06-14T15:20:45.983Z,21.50
2018-06-14T15:23:16.679Z,21.50
2018-06-14T15:25:45.989Z,21.50
2018-06-14T15:28:15.861Z,21.30
2018-06-14T15:30:45.739Z,21.00
2018-06-14T15:33:15.172Z,20.90
2018-06-14T15:35:45.519Z,20.80
2018-06-14T15:40:43.602Z,20.90
2018-06-14T15:43:13.312Z,20.80
2018-06-14T15:48:12.521Z,20.70
2018-06-14T15:50:41.606Z,20.60
2018-06-14T15:53:10.738Z,20.50
2018-06-14T15:56:02.262Z,20.40
2018-06-14T15:58:31.964Z,20.30
2018-06-14T16:01:01.252Z,20.30
2018-06-14T16:03:31.356Z,20.30
2018-06-14T16:06:00.742Z,20.30
2018-06-14T16:08:30.203Z,20.20
2018-06-14T16:10:59.536Z,20.10
2018-06-14T16:13:29.972Z,20.10
2018-06-14T16:15:59.024Z,20.20
2018-06-14T16:18:29.703Z,20.10
2018-06-14T16:20:58.990Z,20.00
2018-06-14T16:23:28.717Z,20.00
2018-06-14T16:25:58.116Z,19.90
2018-06-14T16:28:27.328Z,19.80
2018-06-14T16:30:57.746Z,19.60
2018-06-14T16:33:27.998Z,19.60
2018-06-14T16:35:57.260Z,19.50
2018-06-14T16:38:26.488Z,19.50
2018-06-14T16:43:24.720Z,19.50
2018-06-14T16:45:54.197Z,19.50
2018-06-14T16:48:23.233Z,19.50
2018-06-14T16:50:52.403Z,19.50
2018-06-14T16:53:22.809Z,19.50
2018-06-14T16:55:51.946Z,19.60
2018-06-14T16:58:21.961Z,19.70
2018-06-14T17:00:53.319Z,19.60
2018-06-14T17:03:22.481Z,19.40
2018-06-14T17:05:51.640Z,19.30
2018-06-14T17:08:21.029Z,19.20
2018-06-14T17:10:50.121Z,19.30
2018-06-14T17:13:19.546Z,19.40
2018-06-14T17:15:49.912Z,19.50
2018-06-14T17:18:19.448Z,19.50
2018-06-14T17:20:50.205Z,19.50
2018-06-14T17:23:20.512Z,19.50
2018-06-14T17:25:53.610Z,19.40
2018-06-14T17:28:23.037Z,19.30
2018-06-14T17:30:52.366Z,19.30
2018-06-14T17:33:21.619Z,19.30
2018-06-14T17:35:50.794Z,19.30
2018-06-14T17:38:22.138Z,19.40
2018-06-14T17:40:51.480Z,19.30
2018-06-14T17:43:20.720Z,19.10
2018-06-14T17:45:50.958Z,19.00
2018-06-14T17:48:21.185Z,18.90
2018-06-14T17:50:51.374Z,18.90
2018-06-14T17:53:20.625Z,18.80
2018-06-14T17:55:49.857Z,18.80
2018-06-14T17:58:19.202Z,18.60
2018-06-14T18:00:48.382Z,18.40
2018-06-14T18:03:18.699Z,18.20
2018-06-14T18:05:49.725Z,18.00
2018-06-14T18:08:19.926Z,17.90
2018-06-14T18:13:19.030Z,18.10
2018-06-14T18:15:49.824Z,18.10
2018-06-14T18:18:19.092Z,18.20
2018-06-14T18:20:49.024Z,18.20
2018-06-14T18:23:18.248Z,18.30
2018-06-14T18:25:47.835Z,18.30
2018-06-14T18:28:17.989Z,18.50
2018-06-14T18:30:47.420Z,18.50
2018-06-14T18:33:16.957Z,18.50
2018-06-14T18:35:47.067Z,18.50
2018-06-14T18:38:16.981Z,18.40
2018-06-14T18:40:46.949Z,18.40
2018-06-14T18:43:16.168Z,18.40
2018-06-14T18:45:46.620Z,18.50
2018-06-14T18:48:15.892Z,18.50
2018-06-14T18:50:46.070Z,18.50
2018-06-14T18:53:16.437Z,18.50
2018-06-14T18:55:46.554Z,18.50
2018-06-14T18:58:15.724Z,18.50
2018-06-14T19:00:46.392Z,18.40
2018-06-14T19:03:15.666Z,18.30
2018-06-14T19:05:44.898Z,18.20
2018-06-14T19:08:14.993Z,18.20
2018-06-14T19:10:45.356Z,18.10
2018-06-14T19:13:16.878Z,18.20
2018-06-14T19:15:47.281Z,18.10
2018-06-14T19:18:16.685Z,18.10
2018-06-14T19:20:46.214Z,18.10
2018-06-14T19:23:17.068Z,18.10
2018-06-14T19:25:46.260Z,18.10
2018-06-14T19:28:15.453Z,18.10
2018-06-14T19:30:44.859Z,18.00
2018-06-14T19:33:14.032Z,17.90
2018-06-14T19:35:44.131Z,17.80
2018-06-14T19:38:13.427Z,17.80
2018-06-14T19:40:42.531Z,17.80
2018-06-14T19:43:11.864Z,17.70
2018-06-14T19:45:42.074Z,17.70
2018-06-14T19:48:11.392Z,17.70
2018-06-14T19:50:40.584Z,17.70
2018-06-14T19:53:09.794Z,17.70
2018-06-14T19:55:39.790Z,17.60
2018-06-14T19:58:09.137Z,17.60
2018-06-14T20:00:40.052Z,17.50
2018-06-14T20:03:11.674Z,17.50
2018-06-14T20:05:41.224Z,17.50
2018-06-14T20:08:11.941Z,17.50
2018-06-14T20:10:41.125Z,17.40
2018-06-14T20:13:10.333Z,17.40
2018-06-14T20:15:39.765Z,17.30
2018-06-14T20:18:08.985Z,17.20
2018-06-14T20:20:39.235Z,17.20
2018-06-14T20:23:08.244Z,17.20
2018-06-14T20:25:38.584Z,17.20
2018-06-14T20:28:07.732Z,17.00
2018-06-14T20:30:36.824Z,16.90
2018-06-14T20:33:06.288Z,16.80
2018-06-14T20:35:36.529Z,16.70
2018-06-14T20:38:05.829Z,16.50
2018-06-14T20:40:34.972Z,16.40
2018-06-14T20:43:04.110Z,16.30
2018-06-14T20:45:34.216Z,16.20
2018-06-14T20:48:04.453Z,16.10
2018-06-14T20:50:34.470Z,16.00
2018-06-14T20:53:05.263Z,15.90
2018-06-14T20:55:35.307Z,15.80
2018-06-14T20:58:05.560Z,15.70
2018-06-14T21:00:36.406Z,15.70
2018-06-14T21:03:06.123Z,15.60
2018-06-14T21:05:35.349Z,15.60
2018-06-14T21:08:05.835Z,15.60
2018-06-14T21:10:36.687Z,15.50
2018-06-14T21:13:07.837Z,15.50
2018-06-14T21:15:38.619Z,15.50
2018-06-14T21:18:10.250Z,15.50
2018-06-14T21:20:39.573Z,15.40
2018-06-14T21:23:08.651Z,15.50
2018-06-14T21:25:38.742Z,15.40
2018-06-14T21:28:08.919Z,15.40
2018-06-14T21:30:38.425Z,15.30
2018-06-14T21:33:09.527Z,15.30
2018-06-14T21:35:39.978Z,15.30
2018-06-14T21:40:38.111Z,15.40
2018-06-14T21:43:07.320Z,15.30
2018-06-14T21:45:37.314Z,15.30
2018-06-14T21:48:07.414Z,15.30
2018-06-14T21:50:36.460Z,15.20
2018-06-14T21:53:06.531Z,15.20
2018-06-14T21:55:35.841Z,15.10
2018-06-14T21:58:05.998Z,15.10
2018-06-14T22:00:35.244Z,15.00
2018-06-14T22:03:09.729Z,15.00
2018-06-14T22:05:39.083Z,15.00
2018-06-14T22:10:36.913Z,15.00
2018-06-14T22:15:39.234Z,15.20
2018-06-14T22:18:09.431Z,15.20
2018-06-14T22:20:38.561Z,15.30
2018-06-14T22:23:07.660Z,15.30
2018-06-14T22:25:37.120Z,15.30
2018-06-14T22:28:07.599Z,15.30
2018-06-14T22:30:38.201Z,15.30
2018-06-14T22:33:18.504Z,15.30
2018-06-14T22:35:48.671Z,15.20
2018-06-14T22:38:18.008Z,15.20
2018-06-14T22:40:47.270Z,15.20
2018-06-14T22:43:16.352Z,15.20
2018-06-14T22:45:46.792Z,15.20
2018-06-14T22:48:16.120Z,15.20
2018-06-14T22:50:56.309Z,15.20
2018-06-14T22:53:26.312Z,15.20
2018-06-14T22:58:25.118Z,15.10
2018-06-14T23:01:35.316Z,15.20
2018-06-14T23:04:05.883Z,15.20
2018-06-14T23:06:36.902Z,15.20
2018-06-14T23:09:17.876Z,15.20
2018-06-14T23:11:47.166Z,15.20
2018-06-14T23:14:16.305Z,15.20
2018-06-14T23:16:47.201Z,15.20
2018-06-14T23:19:16.316Z,15.20
2018-06-14T23:21:46.276Z,15.20
2018-06-14T23:24:15.316Z,15.30
2018-06-14T23:26:44.379Z,15.30
2018-06-14T23:29:14.459Z,15.30
2018-06-14T23:31:43.769Z,15.30
2018-06-14T23:34:13.432Z,15.20
2018-06-14T23:36:43.553Z,15.20
2018-06-14T23:39:13.040Z,15.30
2018-06-14T23:41:43.165Z,15.30
2018-06-14T23:44:13.334Z,15.30
2018-06-14T23:46:44.454Z,15.30
2018-06-14T23:49:13.615Z,15.40
2018-06-14T23:51:42.662Z,15.40
2018-06-14T23:54:13.724Z,15.50
2018-06-14T23:56:42.888Z,15.40
2018-06-14T23:59:12.084Z,15.50
